sensor_id;sensor_type;location;lat;lon;timestamp;temperature;humidity
8255;DHT22;4167;48.162;11.542;2022-07-10T00:00:33;19.10;53.20
8255;DHT22;4167;48.162;11.542;2022-07-10T00:05:28;19.00;53.10
8255;DHT22;4167;48.162;11.542;2022-07-10T00:07:57;18.90;54.60
8255;DHT22;4167;48.162;11.542;2022-07-10T00:10:24;18.90;55.30
8255;DHT22;4167;48.162;11.542;2022-07-10T00:20:14;18.50;55.50
8255;DHT22;4167;48.162;11.542;2022-07-10T00:22:41;18.60;56.30
8255;DHT22;4167;48.162;11.542;2022-07-10T00:25:11;18.30;57.10
8255;DHT22;4167;48.162;11.542;2022-07-10T00:27:38;18.30;57.80
8255;DHT22;4167;48.162;11.542;2022-07-10T00:30:08;18.20;58.30
8255;DHT22;4167;48.162;11.542;2022-07-10T00:35:02;18.00;59.70
8255;DHT22;4167;48.162;11.542;2022-07-10T00:37:29;17.90;61.50
8255;DHT22;4167;48.162;11.542;2022-07-10T00:42:26;17.30;64.30
8255;DHT22;4167;48.162;11.542;2022-07-10T00:44:52;17.00;67.10
8255;DHT22;4167;48.162;11.542;2022-07-10T00:47:19;17.00;67.90
8255;DHT22;4167;48.162;11.542;2022-07-10T00:49:46;17.00;68.10
8255;DHT22;4167;48.162;11.542;2022-07-10T00:52:16;16.90;68.50
8255;DHT22;4167;48.162;11.542;2022-07-10T00:54:44;16.90;69.80
8255;DHT22;4167;48.162;11.542;2022-07-10T00:57:12;17.00;69.20
8255;DHT22;4167;48.162;11.542;2022-07-10T00:59:42;16.90;68.10
8255;DHT22;4167;48.162;11.542;2022-07-10T01:02:10;16.90;68.80
8255;DHT22;4167;48.162;11.542;2022-07-10T01:04:37;16.80;68.80
8255;DHT22;4167;48.162;11.542;2022-07-10T01:07:04;16.80;68.80
8255;DHT22;4167;48.162;11.542;2022-07-10T01:09:32;16.80;68.90
8255;DHT22;4167;48.162;11.542;2022-07-10T01:12:00;16.60;68.80
8255;DHT22;4167;48.162;11.542;2022-07-10T01:14:28;16.60;69.50
8255;DHT22;4167;48.162;11.542;2022-07-10T01:16:57;16.50;70.20
8255;DHT22;4167;48.162;11.542;2022-07-10T01:21:52;16.40;70.70
8255;DHT22;4167;48.162;11.542;2022-07-10T01:24:19;16.40;71.90
8255;DHT22;4167;48.162;11.542;2022-07-10T01:26:46;16.30;72.20
8255;DHT22;4167;48.162;11.542;2022-07-10T01:29:13;16.30;72.30
8255;DHT22;4167;48.162;11.542;2022-07-10T01:31:40;16.40;72.20
8255;DHT22;4167;48.162;11.542;2022-07-10T01:34:08;16.50;70.90
8255;DHT22;4167;48.162;11.542;2022-07-10T01:39:04;16.60;70.90
8255;DHT22;4167;48.162;11.542;2022-07-10T01:43:59;16.70;70.70
8255;DHT22;4167;48.162;11.542;2022-07-10T01:46:25;16.80;70.60
8255;DHT22;4167;48.162;11.542;2022-07-10T01:48:52;16.80;70.00
8255;DHT22;4167;48.162;11.542;2022-07-10T01:53:46;16.80;70.90
8255;DHT22;4167;48.162;11.542;2022-07-10T01:56:15;16.80;71.40
8255;DHT22;4167;48.162;11.542;2022-07-10T01:58:42;16.70;72.00
8255;DHT22;4167;48.162;11.542;2022-07-10T02:03:37;16.80;71.50
8255;DHT22;4167;48.162;11.542;2022-07-10T02:06:29;16.80;71.90
8255;DHT22;4167;48.162;11.542;2022-07-10T02:11:25;16.80;72.10
8255;DHT22;4167;48.162;11.542;2022-07-10T02:13:52;16.80;72.20
8255;DHT22;4167;48.162;11.542;2022-07-10T02:16:18;16.80;72.40
8255;DHT22;4167;48.162;11.542;2022-07-10T02:21:12;16.90;72.10
8255;DHT22;4167;48.162;11.542;2022-07-10T02:23:39;16.90;72.50
8255;DHT22;4167;48.162;11.542;2022-07-10T02:28:35;16.90;71.60
8255;DHT22;4167;48.162;11.542;2022-07-10T02:31:02;16.90;72.30
8255;DHT22;4167;48.162;11.542;2022-07-10T02:38:23;16.40;72.60
8255;DHT22;4167;48.162;11.542;2022-07-10T02:43:17;16.30;72.50
8255;DHT22;4167;48.162;11.542;2022-07-10T02:45:45;16.30;74.30
8255;DHT22;4167;48.162;11.542;2022-07-10T02:48:12;16.20;73.60
8255;DHT22;4167;48.162;11.542;2022-07-10T02:50:38;16.10;73.80
8255;DHT22;4167;48.162;11.542;2022-07-10T02:55:32;16.10;74.40
8255;DHT22;4167;48.162;11.542;2022-07-10T02:57:59;16.00;75.00
8255;DHT22;4167;48.162;11.542;2022-07-10T03:00:26;16.00;74.20
8255;DHT22;4167;48.162;11.542;2022-07-10T03:02:55;16.00;74.90
8255;DHT22;4167;48.162;11.542;2022-07-10T03:05:22;16.00;74.40
8255;DHT22;4167;48.162;11.542;2022-07-10T03:07:49;16.00;74.70
8255;DHT22;4167;48.162;11.542;2022-07-10T03:10:16;16.00;75.10
8255;DHT22;4167;48.162;11.542;2022-07-10T03:15:10;15.80;75.60
8255;DHT22;4167;48.162;11.542;2022-07-10T03:17:37;15.80;76.30
8255;DHT22;4167;48.162;11.542;2022-07-10T03:20:07;15.80;75.90
8255;DHT22;4167;48.162;11.542;2022-07-10T03:22:35;15.70;76.40
8255;DHT22;4167;48.162;11.542;2022-07-10T03:27:29;15.60;75.90
8255;DHT22;4167;48.162;11.542;2022-07-10T03:29:56;15.60;76.90
8255;DHT22;4167;48.162;11.542;2022-07-10T03:32:22;15.60;77.30
8255;DHT22;4167;48.162;11.542;2022-07-10T03:34:49;15.60;76.60
8255;DHT22;4167;48.162;11.542;2022-07-10T03:37:17;15.60;75.90
8255;DHT22;4167;48.162;11.542;2022-07-10T03:42:11;15.50;77.10
8255;DHT22;4167;48.162;11.542;2022-07-10T03:44:38;15.50;78.80
8255;DHT22;4167;48.162;11.542;2022-07-10T03:47:05;15.60;78.30
8255;DHT22;4167;48.162;11.542;2022-07-10T03:54:29;15.80;78.00
8255;DHT22;4167;48.162;11.542;2022-07-10T03:56:57;16.00;78.30
8255;DHT22;4167;48.162;11.542;2022-07-10T03:59:42;16.30;78.00
8255;DHT22;4167;48.162;11.542;2022-07-10T04:04:36;16.70;76.60
8255;DHT22;4167;48.162;11.542;2022-07-10T04:07:03;17.10;76.70
8255;DHT22;4167;48.162;11.542;2022-07-10T04:09:32;17.30;75.30
8255;DHT22;4167;48.162;11.542;2022-07-10T04:11:59;17.50;73.90
8255;DHT22;4167;48.162;11.542;2022-07-10T04:16:53;17.60;71.40
8255;DHT22;4167;48.162;11.542;2022-07-10T04:26:43;18.00;69.20
8255;DHT22;4167;48.162;11.542;2022-07-10T04:29:10;18.00;69.90
8255;DHT22;4167;48.162;11.542;2022-07-10T04:31:37;18.10;67.80
8255;DHT22;4167;48.162;11.542;2022-07-10T04:34:04;18.20;68.60
8255;DHT22;4167;48.162;11.542;2022-07-10T04:38:57;18.30;66.60
8255;DHT22;4167;48.162;11.542;2022-07-10T04:43:53;18.10;66.10
8255;DHT22;4167;48.162;11.542;2022-07-10T04:46:19;18.20;66.80
8255;DHT22;4167;48.162;11.542;2022-07-10T04:51:13;17.90;66.60
8255;DHT22;4167;48.162;11.542;2022-07-10T04:53:40;17.80;67.70
8255;DHT22;4167;48.162;11.542;2022-07-10T04:56:07;17.70;67.80
8255;DHT22;4167;48.162;11.542;2022-07-10T04:58:34;17.60;68.10
8255;DHT22;4167;48.162;11.542;2022-07-10T05:01:02;17.40;68.00
8255;DHT22;4167;48.162;11.542;2022-07-10T05:03:29;17.40;68.80
8255;DHT22;4167;48.162;11.542;2022-07-10T05:05:55;17.40;68.90
8255;DHT22;4167;48.162;11.542;2022-07-10T05:08:22;17.30;68.40
8255;DHT22;4167;48.162;11.542;2022-07-10T05:10:49;17.30;69.20
8255;DHT22;4167;48.162;11.542;2022-07-10T05:15:45;17.30;68.80
8255;DHT22;4167;48.162;11.542;2022-07-10T05:18:13;17.20;69.00
8255;DHT22;4167;48.162;11.542;2022-07-10T05:20:40;17.30;69.90
8255;DHT22;4167;48.162;11.542;2022-07-10T05:23:09;17.20;70.00
8255;DHT22;4167;48.162;11.542;2022-07-10T05:25:35;17.20;69.80
8255;DHT22;4167;48.162;11.542;2022-07-10T05:30:30;17.20;68.70
8255;DHT22;4167;48.162;11.542;2022-07-10T05:32:57;17.30;69.40
8255;DHT22;4167;48.162;11.542;2022-07-10T05:35:25;17.20;68.10
8255;DHT22;4167;48.162;11.542;2022-07-10T05:37:53;17.10;67.80
8255;DHT22;4167;48.162;11.542;2022-07-10T05:42:47;17.10;67.60
8255;DHT22;4167;48.162;11.542;2022-07-10T05:45:14;17.20;68.20
8255;DHT22;4167;48.162;11.542;2022-07-10T05:50:08;17.30;66.60
8255;DHT22;4167;48.162;11.542;2022-07-10T05:52:37;17.30;67.40
8255;DHT22;4167;48.162;11.542;2022-07-10T05:55:05;17.20;66.40
8255;DHT22;4167;48.162;11.542;2022-07-10T05:57:33;17.30;66.80
8255;DHT22;4167;48.162;11.542;2022-07-10T06:04:56;18.30;62.50
8255;DHT22;4167;48.162;11.542;2022-07-10T06:07:23;18.80;61.20
8255;DHT22;4167;48.162;11.542;2022-07-10T06:09:51;19.00;59.90
8255;DHT22;4167;48.162;11.542;2022-07-10T06:12:18;19.10;58.70
8255;DHT22;4167;48.162;11.542;2022-07-10T06:14:45;19.00;58.30
8255;DHT22;4167;48.162;11.542;2022-07-10T06:17:11;19.10;59.30
8255;DHT22;4167;48.162;11.542;2022-07-10T06:19:38;19.10;58.90
8255;DHT22;4167;48.162;11.542;2022-07-10T06:22:05;18.60;58.60
8255;DHT22;4167;48.162;11.542;2022-07-10T06:24:51;18.60;59.30
8255;DHT22;4167;48.162;11.542;2022-07-10T06:27:17;18.40;60.40
8255;DHT22;4167;48.162;11.542;2022-07-10T06:39:34;18.00;61.80
8255;DHT22;4167;48.162;11.542;2022-07-10T06:42:03;18.00;62.60
8255;DHT22;4167;48.162;11.542;2022-07-10T06:46:57;17.80;62.50
8255;DHT22;4167;48.162;11.542;2022-07-10T06:49:42;17.90;63.30
8255;DHT22;4167;48.162;11.542;2022-07-10T06:52:09;18.00;63.40
8255;DHT22;4167;48.162;11.542;2022-07-10T06:57:05;18.40;61.90
8255;DHT22;4167;48.162;11.542;2022-07-10T06:59:32;18.90;58.90
8255;DHT22;4167;48.162;11.542;2022-07-10T07:01:59;18.90;59.50
8255;DHT22;4167;48.162;11.542;2022-07-10T07:04:26;18.90;58.80
8255;DHT22;4167;48.162;11.542;2022-07-10T07:09:20;19.40;58.20
8255;DHT22;4167;48.162;11.542;2022-07-10T07:14:15;19.90;57.40
8255;DHT22;4167;48.162;11.542;2022-07-10T07:16:41;20.10;55.90
8255;DHT22;4167;48.162;11.542;2022-07-10T07:19:10;20.20;55.40
8255;DHT22;4167;48.162;11.542;2022-07-10T07:21:43;20.30;54.90
8255;DHT22;4167;48.162;11.542;2022-07-10T07:24:27;19.90;54.40
8255;DHT22;4167;48.162;11.542;2022-07-10T07:29:23;19.20;56.10
8255;DHT22;4167;48.162;11.542;2022-07-10T07:31:49;19.20;56.80
8255;DHT22;4167;48.162;11.542;2022-07-10T07:34:16;19.10;56.90
8255;DHT22;4167;48.162;11.542;2022-07-10T07:36:43;19.50;57.40
8255;DHT22;4167;48.162;11.542;2022-07-10T07:41:37;20.40;53.00
8255;DHT22;4167;48.162;11.542;2022-07-10T07:44:04;20.60;52.10
8255;DHT22;4167;48.162;11.542;2022-07-10T07:46:32;21.00;51.50
8255;DHT22;4167;48.162;11.542;2022-07-10T07:48:59;21.00;52.20
8255;DHT22;4167;48.162;11.542;2022-07-10T07:51:25;21.90;49.90
8255;DHT22;4167;48.162;11.542;2022-07-10T07:53:52;24.90;46.40
8255;DHT22;4167;48.162;11.542;2022-07-10T07:56:19;25.10;46.90
8255;DHT22;4167;48.162;11.542;2022-07-10T07:58:46;25.60;38.00
8255;DHT22;4167;48.162;11.542;2022-07-10T08:03:41;23.80;41.20
8255;DHT22;4167;48.162;11.542;2022-07-10T08:15:58;27.80;40.00
8255;DHT22;4167;48.162;11.542;2022-07-10T08:18:24;29.40;30.60
8255;DHT22;4167;48.162;11.542;2022-07-10T08:20:52;29.20;29.90
8255;DHT22;4167;48.162;11.542;2022-07-10T08:33:08;26.60;31.30
8255;DHT22;4167;48.162;11.542;2022-07-10T08:38:03;24.80;35.00
8255;DHT22;4167;48.162;11.542;2022-07-10T08:40:34;24.00;37.10
8255;DHT22;4167;48.162;11.542;2022-07-10T08:45:31;24.00;40.30
8255;DHT22;4167;48.162;11.542;2022-07-10T08:48:01;24.90;37.30
8255;DHT22;4167;48.162;11.542;2022-07-10T08:50:29;25.70;34.20
8255;DHT22;4167;48.162;11.542;2022-07-10T08:53:01;25.60;33.00
8255;DHT22;4167;48.162;11.542;2022-07-10T08:55:32;24.60;35.00
8255;DHT22;4167;48.162;11.542;2022-07-10T08:57:59;23.60;37.30
8255;DHT22;4167;48.162;11.542;2022-07-10T09:00:27;22.90;38.70
8255;DHT22;4167;48.162;11.542;2022-07-10T09:02:54;22.70;40.10
8255;DHT22;4167;48.162;11.542;2022-07-10T09:10:20;23.40;38.00
8255;DHT22;4167;48.162;11.542;2022-07-10T09:12:53;23.60;38.00
8255;DHT22;4167;48.162;11.542;2022-07-10T09:15:21;23.60;36.40
8255;DHT22;4167;48.162;11.542;2022-07-10T09:17:53;23.10;36.90
8255;DHT22;4167;48.162;11.542;2022-07-10T09:20:27;22.80;38.40
8255;DHT22;4167;48.162;11.542;2022-07-10T09:22:55;22.90;38.20
8255;DHT22;4167;48.162;11.542;2022-07-10T09:25:29;22.70;37.60
8255;DHT22;4167;48.162;11.542;2022-07-10T09:27:58;22.50;38.80
8255;DHT22;4167;48.162;11.542;2022-07-10T09:30:34;22.30;37.40
8255;DHT22;4167;48.162;11.542;2022-07-10T09:33:21;21.90;37.40
8255;DHT22;4167;48.162;11.542;2022-07-10T09:36:05;21.80;38.70
8255;DHT22;4167;48.162;11.542;2022-07-10T09:38:52;21.80;39.40
8255;DHT22;4167;48.162;11.542;2022-07-10T09:41:22;22.00;37.30
8255;DHT22;4167;48.162;11.542;2022-07-10T09:43:52;22.40;38.00
8255;DHT22;4167;48.162;11.542;2022-07-10T09:46:21;23.00;36.80
8255;DHT22;4167;48.162;11.542;2022-07-10T09:48:51;23.40;36.30
8255;DHT22;4167;48.162;11.542;2022-07-10T09:51:30;23.30;35.50
8255;DHT22;4167;48.162;11.542;2022-07-10T09:54:00;23.20;36.00
8255;DHT22;4167;48.162;11.542;2022-07-10T09:56:32;23.30;35.70
8255;DHT22;4167;48.162;11.542;2022-07-10T09:59:00;23.40;33.70
8255;DHT22;4167;48.162;11.542;2022-07-10T10:03:58;23.60;33.50
8255;DHT22;4167;48.162;11.542;2022-07-10T10:06:27;23.90;33.90
8255;DHT22;4167;48.162;11.542;2022-07-10T10:11:26;23.80;31.00
8255;DHT22;4167;48.162;11.542;2022-07-10T10:13:53;23.60;32.00
8255;DHT22;4167;48.162;11.542;2022-07-10T10:16:22;23.30;32.30
8255;DHT22;4167;48.162;11.542;2022-07-10T10:18:50;22.70;33.90
8255;DHT22;4167;48.162;11.542;2022-07-10T10:21:36;22.10;33.90
8255;DHT22;4167;48.162;11.542;2022-07-10T10:26:30;21.90;35.00
8255;DHT22;4167;48.162;11.542;2022-07-10T10:29:00;21.90;35.30
8255;DHT22;4167;48.162;11.542;2022-07-10T10:31:29;22.10;35.50
8255;DHT22;4167;48.162;11.542;2022-07-10T10:33:57;22.40;34.90
8255;DHT22;4167;48.162;11.542;2022-07-10T10:36:45;22.50;35.10
8255;DHT22;4167;48.162;11.542;2022-07-10T10:39:13;22.80;35.20
8255;DHT22;4167;48.162;11.542;2022-07-10T10:44:26;23.50;33.90
8255;DHT22;4167;48.162;11.542;2022-07-10T10:47:00;23.30;32.70
8255;DHT22;4167;48.162;11.542;2022-07-10T10:49:54;22.60;33.20
8255;DHT22;4167;48.162;11.542;2022-07-10T10:55:06;22.10;34.70
8255;DHT22;4167;48.162;11.542;2022-07-10T10:57:42;22.20;34.30
8255;DHT22;4167;48.162;11.542;2022-07-10T11:00:31;22.70;34.50
8255;DHT22;4167;48.162;11.542;2022-07-10T11:03:21;23.30;32.80
8255;DHT22;4167;48.162;11.542;2022-07-10T11:08:40;22.80;32.50
8255;DHT22;4167;48.162;11.542;2022-07-10T11:11:38;22.50;33.40
8255;DHT22;4167;48.162;11.542;2022-07-10T11:14:07;22.60;34.20
8255;DHT22;4167;48.162;11.542;2022-07-10T11:19:03;22.80;32.30
8255;DHT22;4167;48.162;11.542;2022-07-10T11:21:38;22.60;33.50
8255;DHT22;4167;48.162;11.542;2022-07-10T11:24:15;23.00;33.90
8255;DHT22;4167;48.162;11.542;2022-07-10T11:26:52;23.50;31.50
8255;DHT22;4167;48.162;11.542;2022-07-10T11:31:52;24.30;29.90
8255;DHT22;4167;48.162;11.542;2022-07-10T11:34:21;24.20;30.10
8255;DHT22;4167;48.162;11.542;2022-07-10T11:36:48;24.30;30.80
8255;DHT22;4167;48.162;11.542;2022-07-10T11:41:43;23.30;31.20
8255;DHT22;4167;48.162;11.542;2022-07-10T11:44:13;22.50;32.90
8255;DHT22;4167;48.162;11.542;2022-07-10T11:51:41;22.90;32.50
8255;DHT22;4167;48.162;11.542;2022-07-10T11:59:08;23.30;31.90
8255;DHT22;4167;48.162;11.542;2022-07-10T12:01:40;23.40;31.80
8255;DHT22;4167;48.162;11.542;2022-07-10T12:04:08;23.80;31.50
8255;DHT22;4167;48.162;11.542;2022-07-10T12:06:37;24.00;29.90
8255;DHT22;4167;48.162;11.542;2022-07-10T12:09:06;23.80;30.60
8255;DHT22;4167;48.162;11.542;2022-07-10T12:11:34;24.00;30.80
8255;DHT22;4167;48.162;11.542;2022-07-10T12:14:12;24.00;30.70
8255;DHT22;4167;48.162;11.542;2022-07-10T12:16:40;24.30;30.00
8255;DHT22;4167;48.162;11.542;2022-07-10T12:21:36;24.60;29.90
8255;DHT22;4167;48.162;11.542;2022-07-10T12:26:36;24.70;29.70
8255;DHT22;4167;48.162;11.542;2022-07-10T12:29:04;24.90;28.80
8255;DHT22;4167;48.162;11.542;2022-07-10T12:31:33;24.70;28.90
8255;DHT22;4167;48.162;11.542;2022-07-10T12:34:01;24.60;28.80
8255;DHT22;4167;48.162;11.542;2022-07-10T12:36:48;24.50;29.40
8255;DHT22;4167;48.162;11.542;2022-07-10T12:39:17;24.50;29.70
8255;DHT22;4167;48.162;11.542;2022-07-10T12:41:58;24.80;29.90
8255;DHT22;4167;48.162;11.542;2022-07-10T12:44:38;24.90;28.60
8255;DHT22;4167;48.162;11.542;2022-07-10T12:47:06;24.60;29.10
8255;DHT22;4167;48.162;11.542;2022-07-10T12:49:50;24.60;28.40
8255;DHT22;4167;48.162;11.542;2022-07-10T12:52:21;24.40;28.90
8255;DHT22;4167;48.162;11.542;2022-07-10T12:54:48;24.30;29.30
8255;DHT22;4167;48.162;11.542;2022-07-10T12:57:16;24.50;28.90
8255;DHT22;4167;48.162;11.542;2022-07-10T13:02:16;24.40;28.90
8255;DHT22;4167;48.162;11.542;2022-07-10T13:04:52;24.40;28.90
8255;DHT22;4167;48.162;11.542;2022-07-10T13:07:19;24.60;29.00
8255;DHT22;4167;48.162;11.542;2022-07-10T13:12:17;23.80;29.40
8255;DHT22;4167;48.162;11.542;2022-07-10T13:22:06;23.20;30.80
8255;DHT22;4167;48.162;11.542;2022-07-10T13:26:59;23.30;30.00
8255;DHT22;4167;48.162;11.542;2022-07-10T13:29:28;23.30;30.50
8255;DHT22;4167;48.162;11.542;2022-07-10T13:46:39;22.80;29.80
8255;DHT22;4167;48.162;11.542;2022-07-10T14:03:50;21.30;31.30
8255;DHT22;4167;48.162;11.542;2022-07-10T14:11:13;21.00;32.10
8255;DHT22;4167;48.162;11.542;2022-07-10T14:16:07;20.70;32.80
8255;DHT22;4167;48.162;11.542;2022-07-10T14:21:05;20.80;33.00
8255;DHT22;4167;48.162;11.542;2022-07-10T14:23:35;20.90;32.80
8255;DHT22;4167;48.162;11.542;2022-07-10T14:26:02;21.00;32.90
8255;DHT22;4167;48.162;11.542;2022-07-10T14:28:29;21.00;33.50
8255;DHT22;4167;48.162;11.542;2022-07-10T14:33:26;21.00;32.60
8255;DHT22;4167;48.162;11.542;2022-07-10T14:38:21;20.60;33.00
8255;DHT22;4167;48.162;11.542;2022-07-10T14:40:48;20.70;33.30
8255;DHT22;4167;48.162;11.542;2022-07-10T14:43:17;20.80;33.20
8255;DHT22;4167;48.162;11.542;2022-07-10T14:45:44;21.00;33.00
8255;DHT22;4167;48.162;11.542;2022-07-10T14:48:10;21.30;32.30
8255;DHT22;4167;48.162;11.542;2022-07-10T14:53:05;21.10;31.50
8255;DHT22;4167;48.162;11.542;2022-07-10T14:55:34;21.10;32.20
8255;DHT22;4167;48.162;11.542;2022-07-10T14:58:01;21.00;31.90
8255;DHT22;4167;48.162;11.542;2022-07-10T15:02:55;20.80;31.70
8255;DHT22;4167;48.162;11.542;2022-07-10T15:05:22;20.90;31.70
8255;DHT22;4167;48.162;11.542;2022-07-10T15:12:46;21.00;32.20
8255;DHT22;4167;48.162;11.542;2022-07-10T15:20:08;21.00;31.60
8255;DHT22;4167;48.162;11.542;2022-07-10T15:22:36;21.00;32.50
8255;DHT22;4167;48.162;11.542;2022-07-10T15:25:03;20.90;32.00
8255;DHT22;4167;48.162;11.542;2022-07-10T15:27:31;20.90;32.50
8255;DHT22;4167;48.162;11.542;2022-07-10T15:29:59;20.90;31.90
8255;DHT22;4167;48.162;11.542;2022-07-10T15:32:26;20.90;32.50
8255;DHT22;4167;48.162;11.542;2022-07-10T15:34:52;20.90;31.90
8255;DHT22;4167;48.162;11.542;2022-07-10T15:37:19;20.70;31.50
8255;DHT22;4167;48.162;11.542;2022-07-10T15:47:09;20.70;32.00
8255;DHT22;4167;48.162;11.542;2022-07-10T15:52:04;20.70;30.90
8255;DHT22;4167;48.162;11.542;2022-07-10T15:56:58;20.70;31.20
8255;DHT22;4167;48.162;11.542;2022-07-10T15:59:27;20.60;31.00
8255;DHT22;4167;48.162;11.542;2022-07-10T16:01:55;20.60;31.60
8255;DHT22;4167;48.162;11.542;2022-07-10T16:04:24;20.50;31.40
8255;DHT22;4167;48.162;11.542;2022-07-10T16:06:51;20.50;32.00
8255;DHT22;4167;48.162;11.542;2022-07-10T16:09:19;20.40;31.70
8255;DHT22;4167;48.162;11.542;2022-07-10T16:11:46;20.40;32.30
8255;DHT22;4167;48.162;11.542;2022-07-10T16:16:40;20.40;31.50
8255;DHT22;4167;48.162;11.542;2022-07-10T16:19:07;20.30;32.30
8255;DHT22;4167;48.162;11.542;2022-07-10T16:21:36;20.30;32.20
8255;DHT22;4167;48.162;11.542;2022-07-10T16:24:04;20.40;31.70
8255;DHT22;4167;48.162;11.542;2022-07-10T16:26:31;20.40;32.30
8255;DHT22;4167;48.162;11.542;2022-07-10T16:33:52;20.30;31.80
8255;DHT22;4167;48.162;11.542;2022-07-10T16:36:19;20.20;32.60
8255;DHT22;4167;48.162;11.542;2022-07-10T16:38:48;20.10;32.60
8255;DHT22;4167;48.162;11.542;2022-07-10T16:43:43;20.00;32.30
8255;DHT22;4167;48.162;11.542;2022-07-10T16:46:10;19.90;33.00
8255;DHT22;4167;48.162;11.542;2022-07-10T16:53:31;19.60;32.90
8255;DHT22;4167;48.162;11.542;2022-07-10T16:55:59;19.50;33.80
8255;DHT22;4167;48.162;11.542;2022-07-10T16:58:26;19.40;34.00
8255;DHT22;4167;48.162;11.542;2022-07-10T17:00:53;19.40;34.30
8255;DHT22;4167;48.162;11.542;2022-07-10T17:03:20;19.30;34.00
8255;DHT22;4167;48.162;11.542;2022-07-10T17:05:47;19.30;35.20
8255;DHT22;4167;48.162;11.542;2022-07-10T17:08:14;19.40;34.40
8255;DHT22;4167;48.162;11.542;2022-07-10T17:10:41;19.30;34.50
8255;DHT22;4167;48.162;11.542;2022-07-10T17:13:09;19.20;33.60
8255;DHT22;4167;48.162;11.542;2022-07-10T17:15:36;19.20;34.20
8255;DHT22;4167;48.162;11.542;2022-07-10T17:18:04;19.10;34.50
8255;DHT22;4167;48.162;11.542;2022-07-10T17:20:31;19.10;34.90
8255;DHT22;4167;48.162;11.542;2022-07-10T17:25:26;19.00;34.40
8255;DHT22;4167;48.162;11.542;2022-07-10T17:27:53;19.00;35.10
8255;DHT22;4167;48.162;11.542;2022-07-10T17:30:21;18.90;35.20
8255;DHT22;4167;48.162;11.542;2022-07-10T17:35:15;18.80;35.10
8255;DHT22;4167;48.162;11.542;2022-07-10T17:37:41;18.80;35.70
8255;DHT22;4167;48.162;11.542;2022-07-10T17:40:09;18.80;36.00
8255;DHT22;4167;48.162;11.542;2022-07-10T17:42:38;18.70;36.10
8255;DHT22;4167;48.162;11.542;2022-07-10T17:45:06;18.60;35.70
8255;DHT22;4167;48.162;11.542;2022-07-10T17:47:35;18.60;36.30
8255;DHT22;4167;48.162;11.542;2022-07-10T17:50:02;18.60;36.20
8255;DHT22;4167;48.162;11.542;2022-07-10T17:57:23;18.30;36.10
8255;DHT22;4167;48.162;11.542;2022-07-10T18:04:47;18.10;36.60
8255;DHT22;4167;48.162;11.542;2022-07-10T18:07:13;18.10;37.20
8255;DHT22;4167;48.162;11.542;2022-07-10T18:09:40;18.10;37.10
8255;DHT22;4167;48.162;11.542;2022-07-10T18:12:08;18.00;37.20
8255;DHT22;4167;48.162;11.542;2022-07-10T18:14:35;17.90;37.00
8255;DHT22;4167;48.162;11.542;2022-07-10T18:19:29;17.80;36.90
8255;DHT22;4167;48.162;11.542;2022-07-10T18:21:57;17.70;37.10
8255;DHT22;4167;48.162;11.542;2022-07-10T18:24:23;17.70;37.90
8255;DHT22;4167;48.162;11.542;2022-07-10T18:26:50;17.60;37.50
8255;DHT22;4167;48.162;11.542;2022-07-10T18:29:17;17.60;37.50
8255;DHT22;4167;48.162;11.542;2022-07-10T18:31:44;17.40;38.60
8255;DHT22;4167;48.162;11.542;2022-07-10T18:39:23;17.20;38.10
8255;DHT22;4167;48.162;11.542;2022-07-10T18:41:50;17.20;38.80
8255;DHT22;4167;48.162;11.542;2022-07-10T18:44:17;17.20;38.70
8255;DHT22;4167;48.162;11.542;2022-07-10T18:49:11;16.90;38.60
8255;DHT22;4167;48.162;11.542;2022-07-10T18:51:38;16.90;39.20
8255;DHT22;4167;48.162;11.542;2022-07-10T18:56:33;16.70;39.20
8255;DHT22;4167;48.162;11.542;2022-07-10T19:03:55;16.50;39.70
8255;DHT22;4167;48.162;11.542;2022-07-10T19:06:23;16.40;40.50
8255;DHT22;4167;48.162;11.542;2022-07-10T19:08:51;16.20;40.40
8255;DHT22;4167;48.162;11.542;2022-07-10T19:11:17;16.20;41.10
8255;DHT22;4167;48.162;11.542;2022-07-10T19:13:45;16.10;41.00
8255;DHT22;4167;48.162;11.542;2022-07-10T19:16:12;16.10;41.60
8255;DHT22;4167;48.162;11.542;2022-07-10T19:18:39;16.00;42.10
8255;DHT22;4167;48.162;11.542;2022-07-10T19:21:07;15.90;42.30
8255;DHT22;4167;48.162;11.542;2022-07-10T19:23:33;15.80;42.70
8255;DHT22;4167;48.162;11.542;2022-07-10T19:28:27;15.60;42.70
8255;DHT22;4167;48.162;11.542;2022-07-10T19:30:56;15.60;43.60
8255;DHT22;4167;48.162;11.542;2022-07-10T19:33:23;15.50;43.60
8255;DHT22;4167;48.162;11.542;2022-07-10T19:40:46;15.30;43.80
8255;DHT22;4167;48.162;11.542;2022-07-10T19:43:13;15.20;44.60
8255;DHT22;4167;48.162;11.542;2022-07-10T19:45:40;15.20;44.90
8255;DHT22;4167;48.162;11.542;2022-07-10T19:48:08;15.00;44.60
8255;DHT22;4167;48.162;11.542;2022-07-10T19:50:35;15.10;45.40
8255;DHT22;4167;48.162;11.542;2022-07-10T19:53:02;14.90;45.50
8255;DHT22;4167;48.162;11.542;2022-07-10T19:57:56;14.80;45.20
8255;DHT22;4167;48.162;11.542;2022-07-10T20:00:23;14.80;46.00
8255;DHT22;4167;48.162;11.542;2022-07-10T20:02:50;14.80;45.80
8255;DHT22;4167;48.162;11.542;2022-07-10T20:05:19;14.70;46.30
8255;DHT22;4167;48.162;11.542;2022-07-10T20:07:46;14.60;45.90
8255;DHT22;4167;48.162;11.542;2022-07-10T20:10:13;14.60;46.70
8255;DHT22;4167;48.162;11.542;2022-07-10T20:12:39;14.60;46.80
8255;DHT22;4167;48.162;11.542;2022-07-10T20:15:07;14.50;46.50
8255;DHT22;4167;48.162;11.542;2022-07-10T20:20:01;14.40;45.80
8255;DHT22;4167;48.162;11.542;2022-07-10T20:22:29;14.30;46.30
8255;DHT22;4167;48.162;11.542;2022-07-10T20:24:56;14.30;47.10
8255;DHT22;4167;48.162;11.542;2022-07-10T20:27:24;14.30;47.20
8255;DHT22;4167;48.162;11.542;2022-07-10T20:29:50;14.20;47.30
8255;DHT22;4167;48.162;11.542;2022-07-10T20:32:17;14.20;47.50
8255;DHT22;4167;48.162;11.542;2022-07-10T20:34:44;14.10;47.50
8255;DHT22;4167;48.162;11.542;2022-07-10T20:37:11;14.10;48.10
8255;DHT22;4167;48.162;11.542;2022-07-10T20:39:56;14.00;48.40
8255;DHT22;4167;48.162;11.542;2022-07-10T20:44:51;13.90;48.80
8255;DHT22;4167;48.162;11.542;2022-07-10T20:47:19;13.90;49.50
8255;DHT22;4167;48.162;11.542;2022-07-10T20:52:13;13.80;49.30
8255;DHT22;4167;48.162;11.542;2022-07-10T20:57:08;13.80;49.00
8255;DHT22;4167;48.162;11.542;2022-07-10T20:59:35;13.80;49.10
8255;DHT22;4167;48.162;11.542;2022-07-10T21:02:05;13.70;49.20
8255;DHT22;4167;48.162;11.542;2022-07-10T21:14:21;13.50;49.10
8255;DHT22;4167;48.162;11.542;2022-07-10T21:16:49;13.50;49.90
8255;DHT22;4167;48.162;11.542;2022-07-10T21:19:16;13.60;50.10
8255;DHT22;4167;48.162;11.542;2022-07-10T21:26:37;13.30;49.90
8255;DHT22;4167;48.162;11.542;2022-07-10T21:31:33;13.20;51.00
8255;DHT22;4167;48.162;11.542;2022-07-10T21:36:28;13.20;50.80
8255;DHT22;4167;48.162;11.542;2022-07-10T21:41:23;13.10;51.40
8255;DHT22;4167;48.162;11.542;2022-07-10T21:43:49;13.20;51.90
8255;DHT22;4167;48.162;11.542;2022-07-10T21:46:16;13.00;51.50
8255;DHT22;4167;48.162;11.542;2022-07-10T21:48:44;12.90;52.10
8255;DHT22;4167;48.162;11.542;2022-07-10T21:53:39;12.90;52.00
8255;DHT22;4167;48.162;11.542;2022-07-10T21:56:06;12.90;52.70